CheckWX is a tool to help pilots better visualize weather data.  It is not intended as a substitute for an official pre-flight weather briefing.

08:26:10 UTC

KDRO METAR
Durango-La Plata County Airport
Durango, Colorado, USA
Current

33 mins ago

KDRO 250753Z AUTO 34009KT 10SM CLR M04/M16 A3005 RMK AO2 SLP194 T10441161
Observed
Feb-25 @ 07:53 UTC
Wind
  • 340° at 9 KTS
Visibility
10 SM
Flight Rules
VFR
Cloud Levels
  • Clear skies
Temperature
-4°C / 25°F
Dewpoint
-16°C / 3°F
Humidity
39%
Altimeter
30.05" Hg
Pressure
1017.62 hPa
Previous

2 hours ago

KDRO 250653Z AUTO 36018G25KT 10SM CLR M03/M17 A3005 RMK AO2 SLP187 T10331167 400561044
Observed
Feb-25 @ 06:53 UTC
Wind
  • 360° at 18 KTS
  • Gusting to 25 KTS
Visibility
10 SM
Flight Rules
VFR
Cloud Levels
  • Clear skies
Temperature
-3°C / 27°F
Dewpoint
-17°C / 1°F
Humidity
33%
Altimeter
30.05" Hg
Pressure
1017.62 hPa
Previous

3 hours ago

KDRO 250553Z AUTO 00000KT 10SM FEW075 M03/M16 A3004 RMK AO2 SLP188 T10331156 10022 21039 53008
Observed
Feb-25 @ 05:53 UTC
Visibility
10 SM
Flight Rules
VFR
Cloud Levels
  • Few at 7,500' AGL
Temperature
-3°C / 27°F
Dewpoint
-16°C / 3°F
Humidity
36%
Altimeter
30.04" Hg
Pressure
1017.32 hPa